Time;durP1;ratioP1;P1;durP2;ratioP2;P2;SDS_P1;SDS_P2;PMS_P1;PMS_P2;Temp;Humidity;BMP_temperature;BMP_pressure;BME280_temperature;BME280_humidity;BME280_pressure;Samples;Min_cycle;Max_cycle;Signal;HPM_P1;HPM_P2
2022/02/03 00:05:13;;;;;;;6.63;4.90;;;8.10;99.90;;;8.21;74.61;98264.00;5106562;28;20258;-42
2022/02/03 00:08:00;;;;;;;6.80;4.70;;;8.10;99.90;;;8.22;74.46;98275.47;5105452;28;20051;-42
2022/02/03 00:10:40;;;;;;;8.60;5.30;;;8.10;99.90;;;8.19;74.79;98265.13;5107568;28;20052;-42
2022/02/03 00:24:25;;;;;;;5.75;3.72;;;8.10;99.90;;;8.15;74.70;98269.84;5109058;28;20058;-42
2022/02/03 00:27:37;;;;;;;5.53;4.30;;;8.00;99.90;;;8.15;74.50;98266.38;5111701;28;20048;-42
2022/02/03 00:30:12;;;;;;;6.87;4.30;;;8.10;99.90;;;8.18;74.76;98271.38;5087608;28;20355;-42
2022/02/03 00:49:01;;;;;;;4.57;3.83;;;8.00;99.90;;;8.16;74.76;98252.97;5110163;28;20359;-42
2022/02/03 00:51:33;;;;;;;5.50;3.70;;;8.00;99.90;;;8.15;75.02;98256.59;5093227;28;20132;-42
2022/02/03 00:54:02;;;;;;;5.73;4.00;;;8.00;99.90;;;8.15;74.84;98261.88;5109348;28;20050;-42
2022/02/03 00:56:37;;;;;;;6.00;4.23;;;8.00;99.90;;;8.18;74.98;98263.44;5110458;28;20049;-42
2022/02/03 00:59:20;;;;;;;5.73;3.50;;;8.10;99.90;;;8.20;74.98;98256.19;5109305;28;20051;-42
2022/02/03 01:01:55;;;;;;;4.77;3.27;;;8.10;99.90;;;8.16;75.53;98263.59;5108708;28;20051;-42
2022/02/03 01:04:24;;;;;;;4.97;3.57;;;8.10;99.90;;;8.13;75.33;98265.66;5089080;28;20043;-42
2022/02/03 01:06:56;;;;;;;5.63;3.80;;;8.00;99.90;;;8.14;75.35;98259.38;5090824;28;20249;-42
2022/02/03 01:09:34;;;;;;;5.57;3.80;;;8.10;99.90;;;8.13;75.19;98260.34;5091476;28;20235;-42
2022/02/03 01:12:32;;;;;;;7.03;4.17;;;8.10;99.90;;;8.09;75.17;98252.66;5109075;28;20059;-42
2022/02/03 01:15:43;;;;;;;4.67;3.40;;;8.10;99.90;;;8.12;75.15;98259.50;5092913;28;20048;-42
2022/02/03 01:45:22;;;;;;;5.33;3.57;;;8.00;99.90;;;8.09;75.23;98236.72;5087536;28;20110;-42
2022/02/03 01:48:21;;;;;;;7.00;4.40;;;8.00;99.90;;;8.10;75.23;98232.25;5088211;28;20052;-42
2022/02/03 01:53:43;;;;;;;4.67;3.13;;;8.00;99.90;;;8.07;75.31;98214.81;5088416;28;20577;-42
2022/02/03 01:56:17;;;;;;;6.53;3.43;;;8.00;99.90;;;8.08;75.38;98215.63;5088788;28;20052;-42
2022/02/03 01:58:45;;;;;;;4.63;3.23;;;8.00;99.90;;;8.08;75.17;98220.94;5088274;28;20060;-42
2022/02/03 02:01:23;;;;;;;4.80;3.73;;;8.00;99.90;;;8.06;75.20;98218.44;5088239;28;20350;-42
2022/02/03 02:04:34;;;;;;;5.23;3.40;;;8.00;99.90;;;8.04;75.04;98222.19;5087586;28;20044;-42
2022/02/03 02:07:56;;;;;;;4.80;3.70;;;8.00;99.90;;;8.04;75.11;98222.19;5090966;28;20234;-41
2022/02/03 02:11:12;;;;;;;4.33;2.77;;;7.90;99.90;;;8.00;75.15;98218.94;5107782;28;20043;-41
2022/02/03 02:39:31;;;;;;;4.23;2.83;;;8.00;99.90;;;8.13;75.07;98208.16;5107318;28;20044;-41
2022/02/03 02:45:17;;;;;;;4.23;2.83;;;8.00;99.90;;;8.13;75.03;98202.84;5042195;28;20064;-41
2022/02/03 02:48:19;;;;;;;3.93;2.63;;;8.00;99.90;;;8.13;74.81;98207.31;5086990;28;20047;-41
2022/02/03 02:51:05;;;;;;;2.70;2.33;;;8.10;99.90;;;8.14;75.09;98201.84;5067990;28;20048;-41
2022/02/03 03:04:20;;;;;;;6.80;3.53;;;8.10;99.90;;;8.19;74.99;98185.56;5086559;28;20063;-41
2022/02/03 03:37:25;;;;;;;5.07;3.57;;;8.10;99.90;;;8.18;74.67;98155.56;5081175;28;20060;-37
2022/02/03 03:40:01;;;;;;;4.53;3.00;;;8.10;99.90;;;8.18;74.73;98158.19;5107051;28;20078;-37
2022/02/03 03:42:35;;;;;;;5.63;3.67;;;8.10;99.90;;;8.18;74.66;98163.50;5098690;28;20044;-37
2022/02/03 03:45:09;;;;;;;5.00;3.60;;;8.10;99.90;;;8.18;74.70;98160.84;5094972;28;20245;-37
2022/02/03 03:47:40;;;;;;;5.03;3.22;;;8.10;99.90;;;8.18;74.60;98158.19;5107144;28;20039;-37
2022/02/03 03:50:16;;;;;;;6.03;3.80;;;8.00;99.90;;;8.18;74.56;98147.59;5101896;28;20449;-37
2022/02/03 03:53:06;;;;;;;5.97;3.50;;;8.00;99.90;;;8.16;74.58;98153.97;5087173;28;20044;-37
2022/02/03 04:43:30;;;;;;;5.03;3.30;;;7.70;99.90;;;7.87;74.61;98117.56;5100116;28;20368;-37
2022/02/03 05:10:06;;;;;;;4.23;3.00;;;7.70;99.90;;;7.87;74.06;98101.66;5109267;28;20051;-37
2022/02/03 05:13:16;;;;;;;8.23;5.43;;;7.70;99.90;;;7.87;74.26;98106.97;5094772;28;20043;-37
2022/02/03 05:19:53;;;;;;;4.33;3.37;;;7.60;99.90;;;7.80;74.29;98104.03;5091881;28;20056;-37
2022/02/03 05:46:59;;;;;;;2.90;2.30;;;7.50;99.90;;;7.75;74.34;98073.56;5108978;28;20047;-37
2022/02/03 06:00:41;;;;;;;4.95;3.97;;;7.60;99.90;;;7.81;74.08;98065.94;5092903;28;20055;-37
2022/02/03 06:06:22;;;;;;;4.50;2.73;;;7.60;99.90;;;7.86;74.02;98062.88;5107664;28;20055;-37
2022/02/03 06:14:15;;;;;;;4.83;2.43;;;7.70;99.90;;;7.88;74.02;98060.94;5092065;28;20091;-37
2022/02/03 06:22:32;;;;;;;3.53;2.60;;;7.60;99.90;;;7.86;74.19;98062.88;5106917;28;20047;-37
2022/02/03 06:27:49;;;;;;;3.93;2.17;;;7.60;99.90;;;7.86;74.07;98054.94;5106514;28;20058;-37
2022/02/03 06:30:20;;;;;;;12.07;7.43;;;7.60;99.90;;;7.88;74.00;98058.28;5088754;28;20047;-37
2022/02/03 06:32:49;;;;;;;17.27;9.53;;;7.70;99.90;;;7.89;73.92;98041.44;5089751;28;20057;-37
2022/02/03 06:35:17;;;;;;;7.67;3.70;;;7.70;99.90;;;7.87;73.96;98038.91;5090220;28;20051;-37
2022/02/03 06:37:47;;;;;;;5.17;2.80;;;7.60;99.90;;;7.88;73.81;98037.09;5107591;28;20047;-37
2022/02/03 06:40:17;;;;;;;3.13;2.17;;;7.60;99.90;;;7.89;73.98;98038.78;5106902;28;20082;-37
2022/02/03 06:42:45;;;;;;;3.93;2.50;;;7.60;99.90;;;7.87;73.83;98024.78;5106808;28;20047;-37
2022/02/03 06:45:19;;;;;;;4.50;2.07;;;7.60;99.90;;;7.84;73.89;98033.03;5106168;28;20058;-37
2022/02/03 06:48:01;;;;;;;3.70;2.10;;;7.60;99.90;;;7.82;73.71;98040.28;5108828;28;20047;-37
2022/02/03 06:50:39;;;;;;;3.03;1.90;;;7.50;99.90;;;7.79;73.89;98040.53;5107638;28;20360;-37
2022/02/03 06:53:15;;;;;;;5.33;3.30;;;7.50;99.90;;;7.76;73.69;98040.81;5088596;28;20371;-37
2022/02/03 07:01:00;;;;;;;10.20;6.10;;;7.50;99.90;;;7.77;74.23;98038.00;5107600;28;20245;-37
2022/02/03 07:03:32;;;;;;;6.83;3.50;;;7.50;99.90;;;7.78;74.07;98047.66;5105049;28;20055;-37
2022/02/03 07:06:00;;;;;;;4.10;2.63;;;7.60;99.90;;;7.81;74.07;98054.47;5086148;28;20051;-37
2022/02/03 07:08:30;;;;;;;3.57;2.40;;;7.60;99.90;;;7.82;74.14;98049.06;5107984;28;20047;-36
2022/02/03 07:11:00;;;;;;;2.53;2.20;;;7.70;99.90;;;7.83;73.90;98049.88;5107146;28;20358;-37
2022/02/03 07:13:28;;;;;;;5.43;2.30;;;7.70;99.90;;;7.83;74.05;98049.88;5106390;28;20061;-36
2022/02/03 07:15:58;;;;;;;3.73;2.40;;;7.70;99.90;;;7.82;73.93;98043.75;5105468;28;20051;-36
2022/02/03 07:18:26;;;;;;;2.90;2.00;;;7.70;99.90;;;7.85;73.80;98062.06;5107027;28;20053;-36
2022/02/03 07:20:53;;;;;;;3.93;2.07;;;7.70;99.90;;;7.87;73.92;98051.28;5105793;28;20051;-36
2022/02/03 07:23:21;;;;;;;2.33;1.70;;;7.80;99.90;;;7.87;73.60;98048.66;5106844;28;20044;-37
2022/02/03 07:26:08;;;;;;;2.93;2.07;;;7.80;99.90;;;7.89;73.58;98046.72;5106581;28;20051;-37
2022/02/03 07:28:35;;;;;;;2.63;2.03;;;7.90;99.90;;;7.89;73.50;98039.59;5107185;28;20047;-37
2022/02/03 07:31:03;;;;;;;3.07;1.90;;;7.80;99.90;;;7.93;73.59;98037.53;5088715;28;20231;-37
2022/02/03 07:33:32;;;;;;;2.90;1.90;;;7.80;99.90;;;7.95;73.64;98034.72;5109738;28;20211;-37
2022/02/03 07:36:00;;;;;;;5.07;1.93;;;7.80;99.90;;;7.97;73.61;98033.63;5110210;28;20044;-37
2022/02/03 07:38:28;;;;;;;3.17;2.13;;;7.80;99.90;;;7.98;73.54;98030.00;5110954;28;20039;-38
2022/02/03 07:40:56;;;;;;;3.53;2.27;;;7.90;99.90;;;8.00;73.47;98024.56;5109902;28;20055;-37
2022/02/03 07:43:23;;;;;;;3.53;2.53;;;7.90;99.90;;;8.03;73.57;98011.88;5109796;28;20039;-37
2022/02/03 07:45:51;;;;;;;3.90;2.37;;;7.90;99.90;;;8.06;73.66;98013.41;5109848;28;20380;-37
2022/02/03 07:48:20;;;;;;;3.90;2.40;;;8.00;99.90;;;8.06;73.43;98018.72;5109538;28;20047;-37
2022/02/03 07:50:49;;;;;;;2.57;1.77;;;7.90;99.90;;;8.08;73.43;98016.75;5110113;28;20044;-36
2022/02/03 07:53:16;;;;;;;2.87;1.80;;;7.90;99.90;;;8.10;73.56;98006.84;5109871;28;20399;-37
2022/02/03 07:55:46;;;;;;;2.77;1.80;;;8.00;99.90;;;8.13;73.28;98003.09;5110099;28;20058;-37
2022/02/03 07:58:14;;;;;;;5.37;3.20;;;8.00;99.90;;;8.14;73.24;98008.25;5110133;28;20355;-37
2022/02/03 08:00:42;;;;;;;5.50;2.70;;;8.00;99.90;;;8.15;73.17;97999.31;5110616;28;20059;-37
2022/02/03 08:03:14;;;;;;;3.13;2.10;;;8.00;99.90;;;8.17;73.21;97994.72;5110643;28;20053;-38
2022/02/03 08:05:47;;;;;;;5.07;2.90;;;8.00;99.90;;;8.19;73.03;97990.13;5109623;28;20362;-38
2022/02/03 08:10:50;;;;;;;3.47;2.53;;;8.20;99.90;;;8.22;73.15;97981.03;5110538;28;20237;-38
2022/02/03 08:13:25;;;;;;;3.53;2.23;;;8.10;99.90;;;8.24;73.07;97982.59;5109532;28;20044;-37
2022/02/03 08:16:01;;;;;;;2.13;1.70;;;8.10;99.90;;;8.25;72.87;97976.28;5110235;28;20253;-37
2022/02/03 08:18:34;;;;;;;3.00;2.00;;;8.20;99.90;;;8.26;72.66;97971.84;5109742;28;20059;-37
2022/02/03 08:21:05;;;;;;;2.90;1.57;;;8.20;99.90;;;8.28;72.81;97967.25;5109140;28;20054;-37
2022/02/03 08:26:13;;;;;;;3.50;1.70;;;8.30;99.90;;;8.35;72.60;97964.88;5109752;28;20249;-37
2022/02/03 08:31:40;;;;;;;1.67;1.20;;;8.30;99.90;;;8.39;72.59;97956.47;5109992;28;20039;-37
2022/02/03 08:34:14;;;;;;;1.57;1.00;;;8.30;99.90;;;8.43;72.37;97957.06;5109337;28;20055;-37
2022/02/03 08:36:42;;;;;;;1.83;1.33;;;8.40;99.90;;;8.46;72.41;97964.75;5108389;28;20059;-37
2022/02/03 08:39:11;;;;;;;1.00;0.90;;;8.40;99.90;;;8.48;72.30;97957.50;5105694;28;20051;-37
2022/02/03 08:41:41;;;;;;;2.73;1.30;;;8.40;99.90;;;8.51;71.96;97962.53;5108752;28;20043;-37
2022/02/03 08:44:10;;;;;;;1.10;1.00;;;8.40;99.90;;;8.54;72.19;97961.41;5089495;28;20051;-37
2022/02/03 08:46:38;;;;;;;4.30;1.40;;;8.50;99.90;;;8.54;72.01;97967.53;5108520;28;20337;-37
2022/02/03 08:49:07;;;;;;;5.87;1.40;;;8.50;99.90;;;8.56;71.68;97960.28;5106877;28;20055;-37
2022/02/03 08:51:36;;;;;;;1.93;1.03;;;8.50;99.90;;;8.59;71.65;97953.88;5106544;28;20055;-37
2022/02/03 08:54:09;;;;;;;3.77;1.83;;;8.60;99.90;;;8.62;71.82;97943.78;5107131;28;20052;-37
2022/02/03 08:56:50;;;;;;;1.83;1.02;;;8.60;99.90;;;8.60;71.61;97937.78;5107092;28;20257;-37
2022/02/03 09:56:40;;;;;;;1.57;0.97;;;9.10;99.90;;;9.15;70.74;97885.78;5105935;28;20055;-37
2022/02/03 09:59:14;;;;;;;1.27;0.90;;;9.10;99.90;;;9.20;70.57;97883.53;5107038;28;20364;-37
2022/02/03 10:01:54;;;;;;;5.07;2.70;;;9.20;99.90;;;9.26;70.49;97882.94;5107037;28;20044;-37
2022/02/03 10:04:53;;;;;;;6.07;3.37;;;9.30;99.90;;;9.28;70.45;97883.63;5108560;28;20039;-37
2022/02/03 10:07:28;;;;;;;2.80;1.70;;;9.30;99.90;;;9.32;70.60;97884.19;5104409;28;20059;-37
2022/02/03 10:10:07;;;;;;;3.73;2.67;;;9.30;99.90;;;9.33;70.17;97883.22;5106372;28;20062;-37
2022/02/03 10:12:39;;;;;;;4.43;3.10;;;9.30;99.90;;;9.37;70.43;97880.09;5106921;28;20059;-37
2022/02/03 10:15:11;;;;;;;2.90;2.20;;;9.40;99.90;;;9.42;70.37;97872.53;5098105;28;20062;-37
2022/02/03 10:17:44;;;;;;;3.83;2.10;;;9.40;99.90;;;9.45;70.33;97863.41;5103948;27;20054;-37
2022/02/03 10:20:17;;;;;;;4.65;2.20;;;9.50;99.90;;;9.52;70.28;97855.69;5104048;28;20058;-36
2022/02/03 10:22:51;;;;;;;6.43;2.80;;;9.60;99.90;;;9.55;70.26;97842.09;5105550;28;20051;-37
2022/02/03 10:25:33;;;;;;;;;;;9.60;99.90;;;9.51;69.41;97848.69;5107172;28;20043;-37
2022/02/03 10:28:12;;;;;;;3.20;2.53;;;9.60;99.90;;;9.60;70.18;97861.09;5094620;27;19915;-37
2022/02/03 10:33:12;;;;;;;4.70;2.97;;;9.70;99.90;;;9.63;70.10;97837.72;5099014;27;20348;-37
2022/02/03 10:35:48;;;;;;;3.07;2.50;;;9.80;99.90;;;9.68;70.09;97818.66;5119378;28;20048;-37
2022/02/03 10:44:07;;;;;;;3.50;2.37;;;9.90;99.90;;;9.74;69.23;97802.09;5119664;28;20045;-37
2022/02/03 10:49:34;;;;;;;3.93;2.50;;;9.80;99.90;;;9.75;69.52;97774.53;5106659;28;20066;-37
2022/02/03 10:55:06;;;;;;;4.67;2.50;;;9.80;99.90;;;9.72;69.04;97777.47;5106723;28;20342;-37
2022/02/03 10:58:08;;;;;;;3.60;2.50;;;9.80;99.90;;;9.76;68.60;97762.88;5108228;28;20055;-37
2022/02/03 11:03:30;;;;;;;3.60;2.30;;;9.80;99.90;;;9.70;69.09;97758.19;5091476;28;20048;-37
2022/02/03 11:09:08;;;;;;;3.87;2.30;;;9.80;99.90;;;9.74;69.06;97764.03;5108073;28;20048;-37
2022/02/03 11:11:43;;;;;;;3.23;2.33;;;9.80;99.90;;;9.74;68.55;97750.75;5107477;28;20051;-37
2022/02/03 11:14:14;;;;;;;3.83;2.60;;;9.80;99.90;;;9.77;69.07;97729.16;5090193;28;20055;-37
2022/02/03 11:16:42;;;;;;;3.97;2.43;;;9.80;99.90;;;9.78;68.80;97731.66;5088292;28;20044;-36
2022/02/03 11:19:14;;;;;;;2.70;2.20;;;9.80;99.90;;;9.80;68.46;97739.50;5106078;28;20066;-37
2022/02/03 11:21:48;;;;;;;2.23;1.90;;;9.80;99.90;;;9.78;68.84;97730.84;5088336;28;20043;-37
2022/02/03 11:24:26;;;;;;;2.60;1.92;;;9.80;99.90;;;9.78;68.76;97723.69;5089482;28;20043;-37
2022/02/03 11:30:09;;;;;;;3.10;2.40;;;9.80;99.90;;;9.71;67.67;97719.13;5088319;28;20242;-37
2022/02/03 11:38:37;;;;;;;3.87;2.73;;;9.60;99.90;;;9.55;67.71;97698.56;5101340;28;20055;-37
2022/02/03 11:52:40;;;;;;;3.37;2.27;;;9.50;99.90;;;9.55;67.22;97672.81;5105813;28;20048;-37
2022/02/03 12:03:09;;;;;;;3.80;1.83;;;9.60;99.90;;;9.59;66.66;97652.09;5106013;28;20061;-38
2022/02/03 12:19:27;;;;;;;3.20;2.00;;;9.80;99.90;;;9.79;67.04;97653.59;5108759;28;20043;-37
2022/02/03 12:22:24;;;;;;;2.80;1.80;;;9.80;99.90;;;9.80;66.67;97654.41;5109541;28;20046;-38
2022/02/03 12:25:39;;;;;;;2.93;2.00;;;9.80;99.90;;;9.81;66.35;97642.78;5109444;28;20053;-38
2022/02/03 12:28:23;;;;;;;3.30;2.33;;;9.80;99.90;;;9.81;66.68;97627.66;5110465;28;20050;-38
2022/02/03 12:31:36;;;;;;;3.50;2.30;;;9.80;99.90;;;9.85;66.60;97628.19;5108614;28;20067;-38
2022/02/03 12:37:07;;;;;;;3.73;2.63;;;9.90;99.90;;;9.94;66.67;97597.16;5109320;28;20050;-38
2022/02/03 12:40:24;;;;;;;2.97;2.30;;;9.90;99.90;;;9.94;65.13;97594.50;5108233;28;20059;-38
2022/02/03 12:45:17;;;;;;;2.97;2.27;;;10.00;99.90;;;9.99;66.45;97568.25;5110085;28;20350;-38
2022/02/03 12:47:48;;;;;;;9.10;2.33;;;10.00;99.90;;;9.99;66.30;97566.44;5110894;28;20239;-38
2022/02/03 12:50:24;;;;;;;3.53;1.93;;;10.00;99.90;;;10.03;66.11;97551.81;5109667;28;20054;-38
2022/02/03 12:52:53;;;;;;;2.53;1.80;;;10.10;99.90;;;10.09;66.09;97571.63;5109994;28;20047;-38
2022/02/03 12:55:29;;;;;;;3.60;2.30;;;10.20;99.90;;;10.14;66.36;97571.13;5108021;28;20051;-38
2022/02/03 12:58:11;;;;;;;7.13;3.37;;;10.20;99.90;;;10.12;66.42;97565.16;5109349;28;20043;-38
2022/02/03 13:00:48;;;;;;;4.60;2.23;;;10.20;99.90;;;10.08;65.58;97556.69;5108978;28;20065;-38
2022/02/03 13:03:34;;;;;;;3.03;2.40;;;10.20;99.90;;;10.09;66.17;97555.66;5108865;28;20051;-38
2022/02/03 13:06:09;;;;;;;4.40;2.90;;;10.10;99.90;;;10.11;65.69;97560.84;5088250;28;20048;-38
2022/02/03 13:08:47;;;;;;;4.27;2.87;;;10.20;99.90;;;10.12;65.90;97547.38;5095367;27;20257;-38
2022/02/03 13:11:30;;;;;;;3.80;2.40;;;10.20;99.90;;;10.16;66.31;97542.56;5116452;27;20548;-38
2022/02/03 13:16:37;;;;;;;2.77;2.27;;;10.20;99.90;;;10.12;65.87;97543.84;5119234;28;20245;-38
2022/02/03 13:26:58;;;;;;;3.67;2.05;;;10.00;99.90;;;10.05;65.92;97517.91;5118274;28;20043;-38
2022/02/03 13:29:38;;;;;;;3.70;1.70;;;10.00;99.90;;;10.05;65.31;97511.75;5103467;28;20047;-38
2022/02/03 13:32:20;;;;;;;3.50;1.63;;;10.00;99.90;;;10.06;65.86;97505.44;5118073;28;20040;-38
2022/02/03 13:35:01;;;;;;;3.13;2.00;;;10.00;99.90;;;10.04;65.90;97508.28;5118714;28;20040;-38
2022/02/03 13:37:40;;;;;;;4.20;2.27;;;10.00;99.90;;;10.05;65.41;97501.94;5121274;28;20061;-38
2022/02/03 13:40:18;;;;;;;5.13;2.20;;;10.00;99.90;;;10.05;65.84;97519.75;5116876;27;20054;-38
2022/02/03 13:42:49;;;;;;;3.50;2.03;;;10.00;99.90;;;10.04;65.79;97513.59;5098351;28;20055;-38
2022/02/03 13:45:21;;;;;;;4.97;2.77;;;10.00;99.90;;;10.04;65.51;97492.31;5116409;28;20040;-38
2022/02/03 13:47:49;;;;;;;3.07;2.23;;;10.00;99.90;;;10.06;65.87;97500.13;5119611;28;20234;-38
2022/02/03 13:50:31;;;;;;;4.50;2.70;;;10.00;99.90;;;10.07;65.75;97487.66;5117085;28;20052;-38
2022/02/03 13:53:20;;;;;;;6.73;2.93;;;10.00;99.90;;;10.05;65.78;97479.84;5116747;28;20114;-38
2022/02/03 14:21:17;;;;;;;3.80;1.92;;;10.10;98.20;;;10.09;65.14;97502.47;5118632;28;20058;-38
2022/02/03 14:29:26;;;;;;;2.73;2.10;;;10.00;98.80;;;10.04;65.28;97480.84;5119790;28;20349;-38
2022/02/03 14:32:04;;;;;;;3.87;2.20;;;10.00;98.60;;;10.03;64.93;97482.66;5118932;28;20048;-38
2022/02/03 14:34:36;;;;;;;4.67;2.80;;;10.00;98.80;;;10.02;65.01;97490.78;5119075;28;20035;-38
2022/02/03 14:37:12;;;;;;;8.50;4.10;;;10.00;98.60;;;10.02;65.46;97486.34;5118802;28;20061;-38
2022/02/03 14:42:11;;;;;;;5.80;2.83;;;10.00;98.10;;;9.97;64.78;97482.50;5115817;28;20052;-38
2022/02/03 14:44:39;;;;;;;3.97;1.80;;;9.90;98.30;;;9.95;65.31;97471.19;5119058;28;20057;-38
2022/02/03 14:47:09;;;;;;;2.50;1.50;;;9.90;98.30;;;9.97;65.43;97475.34;5118319;28;20094;-38
2022/02/03 14:49:40;;;;;;;1.67;1.17;;;9.90;98.70;;;9.96;65.20;97468.34;5117806;28;20054;-38
2022/02/03 14:52:21;;;;;;;2.60;1.30;;;9.90;98.60;;;9.98;65.14;97454.88;5115396;27;20242;-38
2022/02/03 15:00:28;;;;;;;1.53;1.20;;;9.80;98.30;;;9.92;64.95;97447.56;5117149;27;20269;-38
2022/02/03 15:02:58;;;;;;;2.03;1.50;;;9.80;98.50;;;9.89;65.30;97434.56;5119225;28;20892;-38
2022/02/03 15:05:31;;;;;;;3.27;1.53;;;9.80;98.40;;;9.87;64.89;97450.72;5118887;28;20055;-38
2022/02/03 15:08:03;;;;;;;2.60;1.23;;;9.80;98.80;;;9.86;65.40;97465.81;5118035;28;20046;-38
2022/02/03 15:13:11;;;;;;;2.40;1.50;;;9.70;98.80;;;9.82;65.13;97443.19;5118484;28;20055;-38
2022/02/03 15:15:39;;;;;;;2.20;1.47;;;9.80;98.70;;;9.78;65.17;97460.47;5102346;28;20039;-38
2022/02/03 15:18:08;;;;;;;2.63;2.00;;;9.70;98.70;;;9.79;65.39;97459.50;5117943;28;20044;-38
2022/02/03 15:20:37;;;;;;;1.60;1.37;;;9.70;98.90;;;9.78;65.40;97451.69;5117643;28;20043;-38
2022/02/03 15:23:06;;;;;;;5.93;1.80;;;9.70;99.10;;;9.78;65.04;97444.53;5118709;28;20316;-38
2022/02/03 15:25:34;;;;;;;1.97;1.10;;;9.70;99.50;;;9.79;65.32;97450.66;5118768;28;20043;-38
2022/02/03 15:28:03;;;;;;;2.63;1.50;;;9.70;99.80;;;9.78;65.44;97447.19;5099920;28;20043;-38
2022/02/03 15:30:30;;;;;;;3.13;1.60;;;9.70;99.90;;;9.79;65.28;97451.53;5118936;28;20054;-38
2022/02/03 15:32:58;;;;;;;2.50;1.50;;;9.70;99.90;;;9.78;65.52;97455.16;5115573;28;20053;-38
2022/02/03 15:37:54;;;;;;;2.27;1.90;;;9.70;99.90;;;9.74;65.61;97464.44;5118009;28;20066;-38
2022/02/03 15:40:26;;;;;;;2.53;1.53;;;9.70;99.90;;;9.76;65.47;97466.97;5118576;28;20067;-38
2022/02/03 15:45:23;;;;;;;2.53;1.90;;;9.70;99.90;;;9.76;65.29;97466.97;5097546;28;20073;-38
2022/02/03 15:47:57;;;;;;;4.33;2.50;;;9.70;99.90;;;9.75;65.76;97466.13;5099897;28;20042;-38
2022/02/03 15:51:06;;;;;;;3.23;2.00;;;9.70;99.90;;;9.75;65.85;97457.31;5119027;28;20026;-38
2022/02/03 16:18:10;;;;;;;3.47;2.77;;;9.40;99.90;;;9.46;66.54;97403.56;5099604;28;20361;-38
2022/02/03 16:20:45;;;;;;;3.20;2.80;;;9.30;99.90;;;9.46;66.78;97440.75;5112342;28;20046;-38
2022/02/03 16:23:45;;;;;;;6.13;3.50;;;9.30;99.90;;;9.44;66.85;97448.06;5111042;28;20056;-38
2022/02/03 16:53:16;;;;;;;4.83;4.30;;;9.00;99.90;;;9.20;67.98;97442.59;5108521;28;20489;-37
2022/02/03 16:55:46;;;;;;;4.47;3.60;;;9.00;99.90;;;9.21;67.84;97442.44;5108699;28;20048;-37
2022/02/03 16:58:15;;;;;;;5.57;4.03;;;9.10;99.90;;;9.21;67.79;97449.59;5109500;28;20059;-37
2022/02/03 17:00:47;;;;;;;6.80;4.20;;;9.00;99.90;;;9.22;67.95;97452.06;5109777;28;20047;-37
2022/02/03 17:03:17;;;;;;;5.73;4.20;;;9.00;99.90;;;9.12;67.78;97466.47;5108125;28;20059;-37
2022/02/03 17:05:46;;;;;;;6.60;4.53;;;8.90;99.90;;;8.98;68.13;97455.41;5107880;28;20061;-37
2022/02/03 17:08:14;;;;;;;7.07;5.17;;;8.80;99.90;;;8.95;68.04;97449.59;5108973;28;20047;-37
2022/02/03 17:10:41;;;;;;;9.37;7.40;;;8.70;99.90;;;8.95;68.38;97445.09;5108491;28;20045;-37
2022/02/03 17:13:09;;;;;;;10.13;8.03;;;8.70;99.90;;;8.97;68.22;97453.75;5109234;28;20055;-37
2022/02/03 17:15:37;;;;;;;6.93;5.40;;;8.80;99.90;;;8.95;68.19;97450.41;5110288;28;20360;-37
2022/02/03 17:18:05;;;;;;;5.67;4.70;;;8.80;99.90;;;8.86;68.55;97449.53;5089287;28;20062;-37
2022/02/03 17:20:36;;;;;;;5.40;4.10;;;8.70;99.90;;;8.86;68.20;97438.91;5107543;27;20047;-37
2022/02/03 17:23:06;;;;;;;5.13;4.47;;;8.60;99.90;;;8.80;68.35;97439.53;5107824;28;20292;-37
2022/02/03 17:25:55;;;;;;;5.67;4.37;;;8.60;99.90;;;8.74;68.73;97441.97;5107926;28;20047;-37
2022/02/03 17:28:47;;;;;;;7.30;5.27;;;8.60;99.90;;;8.74;68.62;97444.63;5109587;28;20052;-37
2022/02/03 18:07:14;;;;;;;6.37;5.00;;;8.30;99.90;;;8.46;68.89;97452.69;5108541;28;20073;-37
2022/02/03 18:26:31;;;;;;;8.93;6.33;;;8.00;99.90;;;8.17;69.46;97452.91;5107532;28;20048;-37
2022/02/03 18:50:56;;;;;;;10.10;7.17;;;7.90;99.90;;;8.06;69.29;97440.69;5106134;28;20058;-37
2022/02/03 18:53:36;;;;;;;8.93;6.30;;;7.80;99.90;;;8.02;69.20;97437.47;5105366;28;20249;-37
2022/02/03 18:56:14;;;;;;;13.37;9.13;;;7.80;99.90;;;7.97;69.23;97439.78;5107424;28;20215;-38
2022/02/03 18:58:49;;;;;;;12.87;9.13;;;7.70;99.90;;;7.95;69.52;97428.50;5108224;28;20056;-39
2022/02/03 19:01:37;;;;;;;12.07;8.33;;;7.70;99.90;;;7.96;69.25;97427.50;5107663;28;20051;-38
2022/02/03 20:12:07;;;;;;;9.37;6.73;;;7.20;99.90;;;7.58;69.32;97439.16;5105586;28;20067;-37
2022/02/03 20:14:35;;;;;;;8.37;6.67;;;7.30;99.90;;;7.59;69.53;97440.81;5105392;28;20055;-37
2022/02/03 20:17:03;;;;;;;9.40;6.30;;;7.40;99.90;;;7.54;69.28;97436.00;5104806;28;20273;-37
2022/02/03 20:19:31;;;;;;;8.57;6.27;;;7.30;99.90;;;7.54;69.39;97433.34;5105156;28;20039;-37
2022/02/03 20:21:59;;;;;;;6.63;5.87;;;7.30;99.90;;;7.54;69.58;97432.47;5105544;28;20055;-37
2022/02/03 20:24:27;;;;;;;8.87;5.67;;;7.20;99.90;;;7.53;69.65;97439.59;5105645;28;20055;-37
2022/02/03 20:26:55;;;;;;;11.23;6.40;;;7.30;99.90;;;7.55;69.62;97432.34;5105828;28;20055;-37
2022/02/03 20:29:22;;;;;;;17.70;7.33;;;7.30;99.90;;;7.56;69.57;97419.91;5105918;28;20054;-36
2022/02/03 20:31:50;;;;;;;8.73;5.83;;;7.30;99.90;;;7.59;69.59;97427.59;5105238;28;20366;-36
2022/02/03 20:34:18;;;;;;;7.13;5.90;;;7.40;99.90;;;7.61;69.62;97422.97;5104946;28;20515;-36
2022/02/03 20:36:46;;;;;;;7.83;5.63;;;7.40;99.90;;;7.62;69.47;97414.88;5105413;28;20242;-36
2022/02/03 20:39:15;;;;;;;9.77;6.00;;;7.40;99.90;;;7.64;69.78;97415.56;5105706;28;20051;-36
2022/02/03 20:41:43;;;;;;;9.87;6.60;;;7.50;99.90;;;7.68;69.70;97426.69;5108673;28;20057;-36
2022/02/03 20:44:11;;;;;;;7.60;6.13;;;7.50;99.90;;;7.70;69.44;97432.69;5108834;28;20054;-36
2022/02/03 20:46:39;;;;;;;10.10;6.97;;;7.50;99.90;;;7.72;69.72;97427.25;5108111;28;20226;-36
2022/02/03 20:49:09;;;;;;;8.37;6.27;;;7.60;99.90;;;7.74;69.74;97438.53;5107843;28;20058;-36
2022/02/03 20:51:37;;;;;;;8.73;6.47;;;7.60;99.90;;;7.76;69.66;97439.22;5107181;28;20051;-36
2022/02/03 20:54:05;;;;;;;7.63;6.10;;;7.60;99.90;;;7.76;69.58;97431.25;5107782;28;20047;-36
2022/02/03 20:56:33;;;;;;;9.33;7.70;;;7.60;99.90;;;7.76;69.64;97431.25;5108029;28;20044;-37
2022/02/03 20:59:05;;;;;;;10.47;7.17;;;7.60;99.90;;;7.77;69.79;97424.97;5107774;28;20047;-36
2022/02/03 21:01:35;;;;;;;8.47;6.50;;;7.50;99.90;;;7.76;69.66;97420.66;5104526;28;20051;-36
2022/02/03 21:04:27;;;;;;;8.40;5.90;;;7.50;99.90;;;7.76;69.67;97420.66;5089173;28;20039;-37
2022/02/03 21:06:50;;;;;;;7.40;5.60;;;7.50;99.90;;;7.75;69.79;97409.19;5107904;28;20063;-37
2022/02/03 21:09:18;;;;;;;7.27;5.17;;;7.50;99.90;;;7.76;69.68;97412.72;5107636;28;20056;-36
2022/02/03 21:11:46;;;;;;;9.90;5.93;;;7.50;99.90;;;7.78;69.85;97416.03;5107552;28;20491;-36
2022/02/03 21:14:14;;;;;;;7.40;5.60;;;7.60;99.90;;;7.78;69.81;97408.91;5106336;28;20463;-36
2022/02/03 21:16:43;;;;;;;7.07;5.60;;;7.60;99.90;;;7.80;70.04;97412.25;5108609;28;20043;-36
2022/02/03 21:19:11;;;;;;;8.00;6.50;;;7.60;99.90;;;7.82;69.88;97414.75;5108085;28;20052;-36
2022/02/03 21:21:39;;;;;;;8.53;6.03;;;7.60;99.90;;;7.84;69.88;97412.78;5107887;28;20043;-36
2022/02/03 21:24:07;;;;;;;10.47;5.93;;;7.70;99.90;;;7.86;69.93;97408.16;5090203;28;20068;-36
2022/02/03 21:26:39;;;;;;;7.10;5.43;;;7.70;99.90;;;7.89;70.08;97405.25;5108776;28;20576;-36
2022/02/03 21:29:07;;;;;;;8.97;6.43;;;7.70;99.90;;;7.91;69.67;97407.72;5107494;28;20040;-36
2022/02/03 21:31:35;;;;;;;8.83;6.50;;;7.70;99.90;;;7.91;69.75;97399.75;5108266;28;20048;-36
2022/02/03 21:34:03;;;;;;;9.90;6.23;;;7.70;99.90;;;7.93;69.74;97401.28;5107541;28;20064;-36
2022/02/03 21:36:36;;;;;;;10.87;6.20;;;7.70;99.90;;;7.92;69.75;97391.66;5107817;28;20315;-36
2022/02/03 21:39:04;;;;;;;9.60;6.63;;;7.70;99.90;;;7.94;69.87;97399.47;5106719;28;20051;-36
2022/02/03 21:41:32;;;;;;;7.93;5.83;;;7.70;99.90;;;7.94;69.77;97397.66;5107331;27;20051;-36
2022/02/03 21:44:00;;;;;;;8.50;6.90;;;7.70;99.90;;;7.97;69.78;97399.16;5106401;28;20051;-36
2022/02/03 21:46:28;;;;;;;10.00;6.53;;;7.80;99.90;;;7.98;69.83;97406.13;5108753;28;20214;-36
2022/02/03 21:48:56;;;;;;;8.20;6.20;;;7.80;99.90;;;7.98;69.62;97400.84;5106838;28;20047;-36
2022/02/03 21:51:26;;;;;;;8.53;6.30;;;7.70;99.90;;;7.98;69.79;97396.34;5105281;28;20046;-36